Time;durP1;ratioP1;P1;durP2;ratioP2;P2;SDS_P1;SDS_P2;PMS_P1;PMS_P2;Temp;Humidity;BMP_temperature;BMP_pressure;BME280_temperature;BME280_humidity;BME280_pressure;Samples;Min_cycle;Max_cycle;Signal;HPM_P1;HPM_P2
2021/07/31 00:00:12;;;;;;;0.20;0.20;;;18.40;66.70;;;;;;5072414;28;20033;-84
2021/07/31 00:02:38;;;;;;;0.32;0.20;;;18.30;66.80;;;;;;5075703;28;20032;-84
2021/07/31 00:05:07;;;;;;;0.20;0.20;;;18.30;66.80;;;;;;5078176;28;20025;-84
2021/07/31 00:07:33;;;;;;;0.28;0.20;;;18.30;66.80;;;;;;5061550;28;20406;-84
2021/07/31 00:09:58;;;;;;;0.20;0.20;;;18.30;67.30;;;;;;5057628;28;20029;-84
2021/07/31 00:12:24;;;;;;;0.30;0.20;;;18.20;66.90;;;;;;5073615;28;20041;-84
2021/07/31 00:14:49;;;;;;;0.20;0.20;;;18.10;67.70;;;;;;5057861;28;20109;-83
2021/07/31 00:17:15;;;;;;;0.43;0.20;;;18.10;67.30;;;;;;5057527;28;20029;-84
2021/07/31 00:19:41;;;;;;;0.20;0.20;;;18.00;68.00;;;;;;5057952;28;20488;-84
2021/07/31 00:22:07;;;;;;;0.30;0.17;;;18.10;67.80;;;;;;5057507;28;20029;-84
2021/07/31 00:24:32;;;;;;;0.32;0.20;;;18.10;67.50;;;;;;5057867;28;20033;-84
2021/07/31 00:26:58;;;;;;;0.30;0.20;;;17.90;68.30;;;;;;5057439;28;20144;-84
2021/07/31 00:29:24;;;;;;;0.40;0.20;;;18.00;67.90;;;;;;5057774;28;20081;-83
2021/07/31 00:31:49;;;;;;;0.20;0.20;;;18.00;68.30;;;;;;5057491;28;20391;-84
2021/07/31 00:34:15;;;;;;;0.40;0.22;;;18.00;68.80;;;;;;5057603;28;20025;-84
2021/07/31 00:36:41;;;;;;;0.40;0.30;;;18.00;67.90;;;;;;5058001;28;20039;-84
2021/07/31 00:39:07;;;;;;;0.35;0.20;;;18.10;68.80;;;;;;5055834;28;20033;-83
2021/07/31 00:41:32;;;;;;;0.50;0.20;;;18.10;68.50;;;;;;5066230;28;20028;-84
2021/07/31 00:43:58;;;;;;;0.40;0.20;;;18.20;68.30;;;;;;5057145;28;20086;-84
2021/07/31 00:46:25;;;;;;;0.40;0.20;;;18.20;68.00;;;;;;5057515;28;20487;-83
2021/07/31 00:48:51;;;;;;;0.47;0.20;;;18.20;68.60;;;;;;5057575;28;20025;-84
2021/07/31 00:51:16;;;;;;;0.30;0.20;;;18.20;68.50;;;;;;5075777;28;20025;-84
2021/07/31 00:53:47;;;;;;;0.20;0.20;;;18.30;68.20;;;;;;5074469;28;20042;-84
2021/07/31 00:56:14;;;;;;;0.30;0.20;;;18.30;68.10;;;;;;5057123;28;20456;-84
2021/07/31 00:58:41;;;;;;;0.30;0.20;;;18.30;68.10;;;;;;5057417;28;20032;-84
2021/07/31 01:01:06;;;;;;;0.45;0.20;;;18.30;67.60;;;;;;5056880;28;20025;-84
2021/07/31 01:03:35;;;;;;;0.60;0.30;;;18.30;68.40;;;;;;5056900;28;20096;-84
2021/07/31 01:06:00;;;;;;;0.40;0.20;;;18.30;68.60;;;;;;5056783;28;20028;-84
2021/07/31 01:08:26;;;;;;;0.40;0.20;;;18.30;68.10;;;;;;5059076;28;20413;-84
2021/07/31 01:10:52;;;;;;;0.22;0.20;;;18.30;68.40;;;;;;5077420;28;20099;-84
2021/07/31 01:13:19;;;;;;;0.20;0.20;;;18.30;68.60;;;;;;5076667;28;20036;-84
2021/07/31 01:16:07;;;;;;;0.40;0.25;;;18.20;68.60;;;;;;5059870;28;20032;-84
2021/07/31 01:18:32;;;;;;;0.35;0.20;;;18.20;68.90;;;;;;5056394;28;20029;-84
2021/07/31 01:20:58;;;;;;;0.50;0.25;;;18.20;69.10;;;;;;5059292;28;20033;-84
2021/07/31 01:23:24;;;;;;;0.43;0.30;;;18.30;68.90;;;;;;5076470;28;20074;-83
2021/07/31 01:26:10;;;;;;;0.30;0.20;;;18.30;68.80;;;;;;5061177;28;20551;-83
2021/07/31 01:28:35;;;;;;;0.32;0.22;;;18.30;68.20;;;;;;5055015;28;20037;-84
2021/07/31 01:31:01;;;;;;;0.20;0.20;;;18.30;68.80;;;;;;5056401;28;20040;-83
2021/07/31 01:33:26;;;;;;;0.28;0.20;;;18.40;68.20;;;;;;5071145;28;20037;-84
2021/07/31 01:35:52;;;;;;;0.20;0.20;;;18.30;68.50;;;;;;5056240;28;20037;-83
2021/07/31 01:38:17;;;;;;;0.40;0.20;;;18.40;69.00;;;;;;5057362;28;20029;-83
2021/07/31 01:40:43;;;;;;;0.32;0.20;;;18.30;69.00;;;;;;5062697;28;20434;-83
2021/07/31 01:43:09;;;;;;;0.50;0.30;;;18.30;68.70;;;;;;5076216;28;20031;-83
2021/07/31 01:45:35;;;;;;;0.40;0.20;;;18.30;69.00;;;;;;5065402;28;20021;-83
2021/07/31 01:48:01;;;;;;;0.40;0.20;;;18.30;68.40;;;;;;5055785;28;20088;-83
2021/07/31 01:50:26;;;;;;;0.30;0.30;;;18.30;68.60;;;;;;5056632;28;20032;-85
2021/07/31 01:52:52;;;;;;;0.40;0.30;;;18.30;69.10;;;;;;5054761;28;20036;-83
2021/07/31 01:55:18;;;;;;;0.30;0.20;;;18.30;69.10;;;;;;5056032;28;20549;-84
2021/07/31 01:57:43;;;;;;;0.50;0.30;;;18.30;69.40;;;;;;5055740;28;20453;-84
2021/07/31 02:00:27;;;;;;;0.40;0.20;;;18.30;69.40;;;;;;5055865;28;20032;-84
2021/07/31 02:02:53;;;;;;;0.30;0.20;;;18.30;69.10;;;;;;5055961;28;20029;-84
2021/07/31 02:05:18;;;;;;;0.25;0.20;;;18.30;69.40;;;;;;5055684;28;20036;-84
2021/07/31 02:07:44;;;;;;;0.40;0.30;;;18.20;70.10;;;;;;5056672;28;20021;-84
2021/07/31 02:10:10;;;;;;;0.30;0.20;;;18.30;69.80;;;;;;5055598;28;20021;-84
2021/07/31 02:12:35;;;;;;;0.50;0.30;;;18.30;69.30;;;;;;5072475;28;20063;-86
2021/07/31 02:15:01;;;;;;;0.60;0.30;;;18.30;69.10;;;;;;5075604;28;20418;-85
2021/07/31 02:17:27;;;;;;;0.10;0.10;;;18.30;69.30;;;;;;5076037;28;20024;-83
2021/07/31 02:19:52;;;;;;;0.35;0.20;;;18.30;69.70;;;;;;5068785;28;20364;-84
2021/07/31 02:22:18;;;;;;;0.20;0.20;;;18.30;69.50;;;;;;5056009;28;20044;-83
2021/07/31 02:24:44;;;;;;;0.35;0.25;;;18.30;69.50;;;;;;5063704;28;20029;-84
2021/07/31 02:27:09;;;;;;;0.40;0.20;;;18.30;68.90;;;;;;5062540;28;20534;-84
2021/07/31 02:29:35;;;;;;;0.40;0.20;;;18.30;68.70;;;;;;5056051;28;20029;-84
2021/07/31 02:32:00;;;;;;;0.32;0.20;;;18.30;69.30;;;;;;5055116;28;20110;-84
2021/07/31 02:34:31;;;;;;;0.55;0.28;;;18.20;69.30;;;;;;5058017;28;20069;-83
2021/07/31 02:36:56;;;;;;;;;;;18.30;68.90;;;;;;5074648;28;20506;-84
2021/07/31 02:39:22;;;;;;;0.50;0.30;;;18.30;69.10;;;;;;5075209;28;20366;-84
2021/07/31 02:41:47;;;;;;;0.30;0.20;;;18.30;68.90;;;;;;5063168;28;20535;-84
2021/07/31 02:44:13;;;;;;;0.47;0.30;;;18.30;69.20;;;;;;5055192;28;20020;-84
2021/07/31 02:46:39;;;;;;;0.40;0.20;;;18.10;69.80;;;;;;5055602;28;20029;-84
2021/07/31 02:49:04;;;;;;;0.52;0.20;;;18.10;69.70;;;;;;5056610;28;20036;-84
2021/07/31 02:51:30;;;;;;;0.30;0.20;;;18.00;70.20;;;;;;5075507;28;20034;-84
2021/07/31 02:53:55;;;;;;;0.17;0.17;;;18.00;70.00;;;;;;5063653;28;20101;-84
2021/07/31 02:56:21;;;;;;;0.30;0.20;;;18.00;70.20;;;;;;5055628;28;20061;-84
2021/07/31 02:58:47;;;;;;;0.70;0.22;;;18.00;70.80;;;;;;5076016;28;20105;-84
2021/07/31 03:01:12;;;;;;;0.55;0.30;;;18.00;70.30;;;;;;5073663;28;20036;-84
2021/07/31 03:03:38;;;;;;;0.35;0.20;;;18.10;69.90;;;;;;5075870;28;20040;-84
2021/07/31 03:06:04;;;;;;;0.40;0.30;;;18.10;70.00;;;;;;5072180;28;20036;-84
2021/07/31 03:08:39;;;;;;;0.40;0.30;;;18.20;69.70;;;;;;5073893;28;20399;-84
2021/07/31 03:11:07;;;;;;;0.40;0.30;;;18.10;70.00;;;;;;5074146;28;20039;-84
2021/07/31 03:13:32;;;;;;;0.35;0.20;;;18.10;70.10;;;;;;5075147;28;20028;-84
2021/07/31 03:15:58;;;;;;;0.70;0.30;;;18.00;69.80;;;;;;5069508;28;20040;-84
2021/07/31 03:18:25;;;;;;;0.50;0.20;;;18.00;70.30;;;;;;5054825;28;20025;-83
2021/07/31 03:20:52;;;;;;;0.40;0.20;;;18.00;70.80;;;;;;5055524;28;20411;-84
2021/07/31 03:23:21;;;;;;;0.40;0.30;;;18.00;70.30;;;;;;5055016;28;20017;-84
2021/07/31 03:25:47;;;;;;;0.40;0.22;;;17.90;70.60;;;;;;5055428;28;20470;-84
2021/07/31 03:28:13;;;;;;;0.52;0.25;;;18.00;70.40;;;;;;5055174;28;20021;-84
2021/07/31 03:30:40;;;;;;;0.50;0.32;;;18.00;70.30;;;;;;5058315;28;20037;-83
2021/07/31 03:33:06;;;;;;;0.63;0.30;;;17.90;70.90;;;;;;5059290;28;20122;-84
2021/07/31 03:35:31;;;;;;;0.45;0.30;;;17.90;71.00;;;;;;5059535;28;20047;-83
2021/07/31 03:37:57;;;;;;;0.40;0.30;;;18.00;71.00;;;;;;5079369;28;20078;-84
2021/07/31 03:40:23;;;;;;;0.65;0.20;;;17.90;71.00;;;;;;5078188;28;20418;-84
2021/07/31 03:42:51;;;;;;;0.30;0.20;;;17.90;70.90;;;;;;5078640;28;20036;-82
2021/07/31 03:45:16;;;;;;;0.47;0.30;;;17.90;71.00;;;;;;5064129;28;20079;-84
2021/07/31 03:47:42;;;;;;;0.32;0.25;;;17.90;70.90;;;;;;5058011;28;20029;-84
2021/07/31 03:50:08;;;;;;;0.32;0.20;;;17.90;70.80;;;;;;5059513;28;20074;-84
2021/07/31 03:52:34;;;;;;;0.60;0.30;;;17.80;71.70;;;;;;5058182;28;20024;-84
2021/07/31 03:54:59;;;;;;;0.60;0.30;;;17.80;71.60;;;;;;5057727;28;20025;-84
2021/07/31 03:57:25;;;;;;;0.40;0.30;;;17.70;71.60;;;;;;5057909;28;20067;-84
2021/07/31 03:59:51;;;;;;;0.50;0.30;;;17.70;71.80;;;;;;5058572;28;20028;-83
2021/07/31 04:02:16;;;;;;;0.30;0.20;;;17.80;71.70;;;;;;5058634;28;20029;-83
2021/07/31 04:04:42;;;;;;;0.40;0.30;;;17.70;71.70;;;;;;5057921;28;20021;-84
2021/07/31 04:07:08;;;;;;;0.32;0.20;;;17.70;72.00;;;;;;5058816;28;20040;-84
2021/07/31 04:09:33;;;;;;;0.43;0.30;;;17.70;71.60;;;;;;5057988;28;20482;-84
2021/07/31 04:11:59;;;;;;;0.40;0.20;;;17.70;71.80;;;;;;5058893;28;20036;-84
2021/07/31 04:14:24;;;;;;;0.40;0.30;;;17.50;72.80;;;;;;5057812;28;20042;-84
2021/07/31 04:16:55;;;;;;;0.20;0.20;;;17.70;72.20;;;;;;5075912;28;20028;-84
2021/07/31 04:19:20;;;;;;;;;;;17.70;72.00;;;;;;5078662;28;20134;-84
2021/07/31 04:21:46;;;;;;;0.45;0.30;;;17.70;71.70;;;;;;5069757;28;20006;-84
2021/07/31 04:24:12;;;;;;;0.30;0.20;;;17.70;72.50;;;;;;5058677;28;20028;-84
2021/07/31 04:26:37;;;;;;;0.47;0.20;;;17.60;72.40;;;;;;5057492;28;20023;-84
2021/07/31 04:29:03;;;;;;;0.20;0.20;;;17.50;72.90;;;;;;5058433;28;20049;-83
2021/07/31 04:31:29;;;;;;;0.43;0.30;;;17.50;73.10;;;;;;5057500;28;20025;-84
2021/07/31 04:33:59;;;;;;;0.30;0.20;;;17.50;72.70;;;;;;5057636;28;20032;-84
2021/07/31 04:36:24;;;;;;;0.38;0.20;;;17.60;72.60;;;;;;5056917;28;20027;-84
2021/07/31 04:38:50;;;;;;;0.40;0.30;;;17.60;72.40;;;;;;5057478;28;20585;-84
2021/07/31 04:41:16;;;;;;;0.45;0.25;;;17.60;72.50;;;;;;5068966;28;20418;-84
2021/07/31 04:43:41;;;;;;;0.28;0.15;;;17.70;72.10;;;;;;5076126;28;20039;-84
2021/07/31 04:46:07;;;;;;;0.60;0.20;;;17.70;71.90;;;;;;5072569;28;20095;-84
2021/07/31 04:48:32;;;;;;;0.35;0.30;;;17.70;72.30;;;;;;5057052;28;20025;-84
2021/07/31 04:51:01;;;;;;;0.30;0.20;;;17.60;72.30;;;;;;5063065;28;20082;-84
2021/07/31 04:53:27;;;;;;;0.25;0.20;;;17.60;72.60;;;;;;5057981;28;20029;-84
2021/07/31 04:55:54;;;;;;;0.30;0.20;;;17.60;72.40;;;;;;5057263;28;20364;-84
2021/07/31 04:58:20;;;;;;;0.43;0.30;;;17.60;72.60;;;;;;5057501;28;20056;-83
2021/07/31 05:00:47;;;;;;;0.45;0.28;;;17.70;72.30;;;;;;5060467;28;20025;-84
2021/07/31 05:03:14;;;;;;;0.40;0.22;;;17.70;72.30;;;;;;5076824;28;20024;-84
2021/07/31 05:05:39;;;;;;;0.30;0.20;;;17.70;72.60;;;;;;5076828;28;20039;-84
2021/07/31 05:08:05;;;;;;;0.60;0.30;;;17.70;72.10;;;;;;5057030;28;20033;-84
2021/07/31 05:10:31;;;;;;;0.20;0.20;;;17.60;72.30;;;;;;5056475;28;20051;-84
2021/07/31 05:12:56;;;;;;;0.30;0.20;;;17.60;72.60;;;;;;5056827;28;20036;-84
2021/07/31 05:15:22;;;;;;;0.30;0.20;;;17.50;73.10;;;;;;5056620;28;20040;-84
2021/07/31 05:17:48;;;;;;;0.40;0.20;;;17.60;72.70;;;;;;5056498;28;20033;-84
2021/07/31 05:20:13;;;;;;;0.50;0.20;;;17.60;72.10;;;;;;5056268;28;20033;-84
2021/07/31 05:22:39;;;;;;;0.35;0.28;;;17.60;72.70;;;;;;5056515;28;20036;-84
2021/07/31 05:25:05;;;;;;;0.32;0.22;;;17.60;72.80;;;;;;5056505;28;20056;-84
2021/07/31 05:27:31;;;;;;;0.40;0.30;;;17.60;72.70;;;;;;5055087;28;20029;-84
2021/07/31 05:29:57;;;;;;;0.43;0.30;;;17.50;73.70;;;;;;5054623;28;20406;-84
2021/07/31 05:32:22;;;;;;;0.40;0.20;;;17.60;72.90;;;;;;5056199;28;20036;-84
2021/07/31 05:34:48;;;;;;;0.20;0.20;;;17.60;72.70;;;;;;5056527;28;20399;-84
2021/07/31 05:37:13;;;;;;;0.47;0.30;;;17.70;72.20;;;;;;5056240;28;20051;-84
2021/07/31 05:39:39;;;;;;;0.30;0.20;;;17.70;72.70;;;;;;5055910;28;20499;-84
2021/07/31 05:42:05;;;;;;;0.25;0.20;;;17.70;72.50;;;;;;5074183;28;20037;-84
2021/07/31 05:44:34;;;;;;;0.30;0.20;;;17.50;73.50;;;;;;5070398;28;20017;-84
2021/07/31 05:47:00;;;;;;;0.30;0.28;;;17.50;73.30;;;;;;5055993;28;20057;-83
2021/07/31 05:49:29;;;;;;;0.50;0.30;;;17.60;72.80;;;;;;5055989;28;20017;-84
2021/07/31 05:51:55;;;;;;;0.47;0.30;;;17.70;72.40;;;;;;5055167;28;20484;-85
2021/07/31 05:54:21;;;;;;;0.32;0.22;;;17.80;72.30;;;;;;5055605;28;20072;-83
2021/07/31 05:56:46;;;;;;;0.35;0.20;;;17.80;72.10;;;;;;5055820;28;20037;-84
2021/07/31 05:59:12;;;;;;;0.47;0.30;;;17.80;71.70;;;;;;5055976;28;20395;-83
2021/07/31 06:01:37;;;;;;;0.40;0.28;;;17.80;71.70;;;;;;5054355;28;20037;-84
2021/07/31 06:04:04;;;;;;;0.35;0.28;;;17.80;71.60;;;;;;5055543;28;20522;-84
2021/07/31 06:06:29;;;;;;;0.45;0.30;;;17.80;71.60;;;;;;5055498;28;20056;-84
2021/07/31 06:08:55;;;;;;;0.43;0.30;;;17.90;71.20;;;;;;5055624;28;20013;-83
2021/07/31 06:11:20;;;;;;;0.52;0.30;;;17.80;71.80;;;;;;5055489;28;20037;-84
2021/07/31 06:13:46;;;;;;;0.20;0.20;;;17.80;71.60;;;;;;5055594;28;20025;-84
2021/07/31 06:16:12;;;;;;;0.20;0.20;;;17.80;71.60;;;;;;5055293;28;20041;-83
2021/07/31 06:18:39;;;;;;;0.40;0.30;;;17.70;71.70;;;;;;5055324;28;20021;-84
2021/07/31 06:21:05;;;;;;;0.20;0.20;;;17.90;71.30;;;;;;5055429;28;20472;-83
2021/07/31 06:23:31;;;;;;;0.40;0.25;;;18.00;71.70;;;;;;5055286;28;20052;-83
2021/07/31 06:26:01;;;;;;;0.55;0.30;;;18.00;71.00;;;;;;5075066;28;20082;-82
2021/07/31 06:28:27;;;;;;;0.32;0.20;;;18.10;70.70;;;;;;5075543;28;20020;-80
2021/07/31 06:30:53;;;;;;;0.32;0.20;;;18.20;70.60;;;;;;5055174;28;20111;-78
2021/07/31 06:33:18;;;;;;;0.30;0.20;;;18.30;70.30;;;;;;5061280;28;20059;-78
2021/07/31 06:35:44;;;;;;;0.32;0.30;;;18.20;70.40;;;;;;5063399;28;20051;-81
2021/07/31 06:38:10;;;;;;;0.30;0.20;;;18.30;70.10;;;;;;5065328;28;20036;-80
2021/07/31 06:40:36;;;;;;;0.43;0.20;;;18.30;70.30;;;;;;5067399;28;20063;-80
2021/07/31 06:43:02;;;;;;;0.25;0.20;;;18.30;70.20;;;;;;5058633;28;20020;-81
2021/07/31 06:45:27;;;;;;;0.40;0.20;;;18.30;70.30;;;;;;5069650;28;20032;-81
2021/07/31 06:47:53;;;;;;;0.30;0.20;;;18.40;70.10;;;;;;5061283;28;20471;-82
2021/07/31 06:50:19;;;;;;;0.38;0.20;;;18.30;70.40;;;;;;5067823;28;20445;-80
2021/07/31 06:52:45;;;;;;;0.45;0.30;;;18.30;69.90;;;;;;5064996;28;20029;-80
2021/07/31 06:55:12;;;;;;;0.35;0.30;;;18.40;69.80;;;;;;5060249;28;20017;-79
2021/07/31 06:57:37;;;;;;;0.40;0.30;;;18.40;69.90;;;;;;5063419;28;20021;-82
2021/07/31 07:00:04;;;;;;;0.25;0.20;;;18.40;69.80;;;;;;5070287;28;20547;-81
2021/07/31 07:02:30;;;;;;;0.40;0.20;;;18.50;69.60;;;;;;5059053;28;20550;-81
2021/07/31 07:04:56;;;;;;;0.63;0.30;;;18.50;69.50;;;;;;5071026;28;20071;-83
2021/07/31 07:07:21;;;;;;;0.20;0.20;;;18.50;69.70;;;;;;5066357;28;20025;-81
2021/07/31 07:09:47;;;;;;;0.38;0.20;;;18.50;69.50;;;;;;5064708;28;20063;-78
2021/07/31 07:12:13;;;;;;;0.30;0.20;;;18.60;69.60;;;;;;5063210;28;20033;-79
2021/07/31 07:14:38;;;;;;;0.40;0.30;;;18.70;69.30;;;;;;5065405;28;20078;-82
2021/07/31 07:17:05;;;;;;;0.28;0.20;;;18.80;68.80;;;;;;5069813;28;20152;-79
2021/07/31 07:19:31;;;;;;;0.40;0.20;;;18.80;68.90;;;;;;5065785;28;20024;-80
2021/07/31 07:21:57;;;;;;;0.28;0.20;;;18.90;68.90;;;;;;5056176;28;20032;-81
2021/07/31 07:24:22;;;;;;;0.25;0.20;;;18.80;68.90;;;;;;5066647;28;20024;-82
2021/07/31 07:26:48;;;;;;;0.68;0.30;;;18.90;68.80;;;;;;5070835;28;20033;-78
2021/07/31 07:29:15;;;;;;;0.40;0.30;;;19.00;68.30;;;;;;5076626;28;20013;-79
2021/07/31 07:31:40;;;;;;;0.55;0.20;;;18.90;68.20;;;;;;5069505;28;20075;-77
2021/07/31 07:34:06;;;;;;;0.45;0.20;;;18.90;69.00;;;;;;5058969;28;20028;-82
2021/07/31 07:36:32;;;;;;;0.50;0.30;;;18.90;69.00;;;;;;5075580;28;20086;-83
2021/07/31 07:38:58;;;;;;;0.40;0.28;;;18.90;68.80;;;;;;5071966;28;20029;-83
2021/07/31 07:41:23;;;;;;;0.30;0.20;;;18.80;69.60;;;;;;5073985;28;20072;-83
2021/07/31 07:43:49;;;;;;;0.52;0.30;;;18.90;68.70;;;;;;5064051;28;20029;-83
2021/07/31 07:46:16;;;;;;;0.30;0.20;;;19.10;68.50;;;;;;5077119;28;20407;-82
2021/07/31 07:48:46;;;;;;;0.30;0.20;;;19.20;68.20;;;;;;5077496;28;20080;-82
2021/07/31 07:51:12;;;;;;;0.68;0.30;;;19.20;67.70;;;;;;5075797;28;20036;-81
2021/07/31 07:53:38;;;;;;;0.30;0.20;;;19.30;67.40;;;;;;5075150;28;20512;-81
2021/07/31 07:56:04;;;;;;;0.40;0.20;;;19.40;67.70;;;;;;5074655;28;20032;-80
2021/07/31 07:58:30;;;;;;;0.30;0.20;;;19.50;67.30;;;;;;5070446;28;20036;-81
2021/07/31 08:00:55;;;;;;;0.38;0.20;;;19.60;67.00;;;;;;5074847;28;20033;-83
2021/07/31 08:03:21;;;;;;;0.40;0.22;;;19.70;66.90;;;;;;5072767;28;20031;-84
2021/07/31 08:05:47;;;;;;;0.40;0.25;;;19.70;67.00;;;;;;5074789;28;20396;-88
2021/07/31 08:08:13;;;;;;;0.73;0.20;;;19.80;66.60;;;;;;5073793;28;20075;-85
2021/07/31 08:10:39;;;;;;;0.28;0.20;;;19.80;66.60;;;;;;5073552;28;20572;-82
2021/07/31 08:13:05;;;;;;;0.30;0.20;;;19.90;66.00;;;;;;5072884;28;20036;-89
2021/07/31 08:15:30;;;;;;;0.30;0.20;;;20.00;65.40;;;;;;5076360;28;20055;-86
2021/07/31 08:17:56;;;;;;;0.20;0.20;;;20.10;65.40;;;;;;5076443;28;20020;-84
2021/07/31 08:20:22;;;;;;;0.30;0.20;;;20.00;65.10;;;;;;5073776;28;20090;-85
2021/07/31 08:22:48;;;;;;;0.43;0.20;;;20.10;65.40;;;;;;5075859;28;20052;-84
2021/07/31 08:25:14;;;;;;;0.25;0.20;;;20.20;65.20;;;;;;5076823;28;20031;-84
2021/07/31 08:27:39;;;;;;;0.30;0.20;;;20.30;65.20;;;;;;5074863;28;20099;-83
2021/07/31 08:30:07;;;;;;;0.20;0.13;;;20.30;65.90;;;;;;5069469;28;20032;-84
2021/07/31 08:32:33;;;;;;;0.22;0.20;;;20.30;65.10;;;;;;5075267;28;20502;-84
2021/07/31 08:35:02;;;;;;;0.35;0.20;;;20.30;65.10;;;;;;5067905;28;20081;-85
2021/07/31 08:37:27;;;;;;;0.13;0.13;;;20.40;64.80;;;;;;5073987;28;20060;-84
2021/07/31 08:39:54;;;;;;;0.17;0.10;;;20.50;64.60;;;;;;5080130;28;20055;-84
2021/07/31 08:42:19;;;;;;;0.30;0.10;;;20.50;64.20;;;;;;5088451;28;20044;-84
2021/07/31 08:44:45;;;;;;;0.40;0.20;;;20.80;63.90;;;;;;5075327;28;20032;-84
2021/07/31 08:47:13;;;;;;;0.30;0.20;;;20.90;63.00;;;;;;5074125;28;20012;-84
2021/07/31 08:49:43;;;;;;;0.20;0.20;;;21.20;62.30;;;;;;5075337;28;20017;-84
2021/07/31 08:52:09;;;;;;;0.20;0.13;;;21.30;61.80;;;;;;5075035;28;20039;-84
2021/07/31 08:54:39;;;;;;;0.30;0.17;;;21.50;60.80;;;;;;5076294;28;20071;-85
2021/07/31 08:57:06;;;;;;;0.22;0.10;;;21.70;60.40;;;;;;5071640;28;20613;-85
2021/07/31 08:59:32;;;;;;;0.50;0.13;;;21.80;59.00;;;;;;5067046;28;20056;-81
2021/07/31 09:02:01;;;;;;;0.40;0.20;;;22.00;59.80;;;;;;5077743;28;20467;-88
2021/07/31 09:04:28;;;;;;;0.20;0.10;;;22.10;59.40;;;;;;5095347;28;20116;-83
2021/07/31 09:06:54;;;;;;;0.20;0.10;;;22.10;58.20;;;;;;5070704;28;20113;-83
2021/07/31 09:09:25;;;;;;;0.50;0.20;;;22.20;57.80;;;;;;5053818;28;20112;-84
2021/07/31 09:12:02;;;;;;;0.20;0.10;;;22.30;57.60;;;;;;5055691;28;20021;-84
2021/07/31 09:14:28;;;;;;;0.17;0.10;;;22.50;55.40;;;;;;5056701;28;20033;-84
2021/07/31 09:16:55;;;;;;;0.30;0.20;;;22.60;55.40;;;;;;5061754;28;20036;-84
2021/07/31 09:19:21;;;;;;;0.30;0.25;;;23.00;55.40;;;;;;5076464;28;20033;-84
2021/07/31 09:21:49;;;;;;;0.20;0.10;;;24.00;53.10;;;;;;5076465;28;20025;-85
2021/07/31 09:24:16;;;;;;;0.40;0.20;;;24.70;50.50;;;;;;5076312;28;20032;-84
2021/07/31 09:26:49;;;;;;;0.20;0.10;;;25.20;48.50;;;;;;5064336;28;20021;-85
2021/07/31 09:29:24;;;;;;;0.17;0.13;;;25.70;47.60;;;;;;5056329;28;20865;-85
2021/07/31 09:31:54;;;;;;;0.10;0.10;;;25.80;47.10;;;;;;5069628;28;20024;-85
2021/07/31 09:34:33;;;;;;;0.10;0.10;;;25.50;43.90;;;;;;5076322;28;20051;-83
2021/07/31 09:37:05;;;;;;;0.00;0.00;;;25.60;46.30;;;;;;5074273;28;20457;-85
2021/07/31 09:39:50;;;;;;;0.20;0.20;;;25.30;44.00;;;;;;5075653;28;20776;-84
2021/07/31 09:42:36;;;;;;;0.22;0.10;;;26.70;42.70;;;;;;5063097;28;20029;-84
2021/07/31 09:45:02;;;;;;;0.10;0.10;;;28.00;40.30;;;;;;5056230;28;20025;-87
2021/07/31 09:47:27;;;;;;;0.10;0.10;;;28.90;37.50;;;;;;5054642;28;20024;-85
2021/07/31 09:49:53;;;;;;;0.13;0.10;;;29.90;36.70;;;;;;5065814;28;20043;-84
2021/07/31 09:52:21;;;;;;;0.00;0.00;;;30.80;36.10;;;;;;5074206;28;20043;-82
2021/07/31 09:54:47;;;;;;;0.00;0.00;;;30.80;33.40;;;;;;5056256;28;20391;-83
2021/07/31 09:57:13;;;;;;;0.00;0.00;;;30.50;33.60;;;;;;5066318;28;20032;-85
2021/07/31 09:59:47;;;;;;;0.00;0.00;;;30.00;33.60;;;;;;5065334;28;20058;-81
2021/07/31 10:02:17;;;;;;;0.00;0.00;;;29.30;33.20;;;;;;5058328;28;20029;-86
2021/07/31 10:04:45;;;;;;;0.00;0.00;;;28.50;36.70;;;;;;5069907;28;20032;-83
2021/07/31 10:07:14;;;;;;;0.00;0.00;;;27.80;37.10;;;;;;5062862;28;20483;-84
2021/07/31 10:09:46;;;;;;;0.05;0.00;;;27.00;38.00;;;;;;5058477;28;20021;-84
2021/07/31 10:12:15;;;;;;;0.08;0.00;;;26.50;40.20;;;;;;5073336;28;20024;-83
2021/07/31 10:14:44;;;;;;;0.00;0.00;;;26.20;41.10;;;;;;5060100;28;20024;-82
2021/07/31 10:17:11;;;;;;;0.10;0.10;;;26.00;40.40;;;;;;5066291;28;20044;-79
2021/07/31 10:19:45;;;;;;;0.00;0.00;;;26.00;40.80;;;;;;5057318;28;20025;-83
2021/07/31 10:22:12;;;;;;;0.10;0.10;;;26.20;40.00;;;;;;5070476;28;20099;-80
2021/07/31 10:24:53;;;;;;;0.00;0.00;;;26.20;39.30;;;;;;5058892;28;20059;-86
2021/07/31 10:27:19;;;;;;;0.00;0.00;;;25.90;39.80;;;;;;5065901;28;20136;-87
2021/07/31 10:29:47;;;;;;;0.10;0.00;;;25.50;40.50;;;;;;5062646;28;20502;-84
2021/07/31 10:32:22;;;;;;;0.05;0.05;;;25.30;41.00;;;;;;5063788;28;20051;-83
2021/07/31 10:35:00;;;;;;;0.00;0.00;;;25.00;43.20;;;;;;5061649;28;20039;-86
2021/07/31 10:37:31;;;;;;;0.00;0.00;;;24.80;45.30;;;;;;5064515;28;20024;-82
2021/07/31 10:40:00;;;;;;;0.10;0.00;;;24.40;46.40;;;;;;5059676;28;20049;-88
2021/07/31 10:42:26;;;;;;;0.10;0.00;;;24.20;46.50;;;;;;5065254;28;20073;-88
2021/07/31 10:45:17;;;;;;;0.00;0.00;;;24.20;47.10;;;;;;5066825;28;20411;-82
2021/07/31 10:47:54;;;;;;;0.10;0.10;;;24.10;47.80;;;;;;5066390;28;20108;-80
2021/07/31 10:50:26;;;;;;;0.10;0.10;;;24.30;47.20;;;;;;5063824;28;20029;-77
2021/07/31 10:52:54;;;;;;;0.08;0.03;;;24.40;47.30;;;;;;5069899;28;20025;-78
2021/07/31 10:55:22;;;;;;;0.00;0.00;;;24.50;47.00;;;;;;5065867;28;20041;-77
2021/07/31 10:57:54;;;;;;;0.20;0.10;;;24.60;46.30;;;;;;5066179;28;20025;-78
2021/07/31 11:00:26;;;;;;;0.10;0.10;;;24.80;46.40;;;;;;5065714;28;20032;-77
2021/07/31 11:02:53;;;;;;;0.10;0.10;;;24.90;45.90;;;;;;5062120;28;20407;-77
2021/07/31 11:05:19;;;;;;;0.00;0.00;;;24.90;45.60;;;;;;5062620;28;20410;-77
2021/07/31 11:07:57;;;;;;;0.03;0.00;;;24.60;45.30;;;;;;5061205;28;20012;-77
2021/07/31 11:10:31;;;;;;;0.10;0.10;;;24.80;45.30;;;;;;5063501;28;20026;-76
2021/07/31 11:12:58;;;;;;;0.10;0.10;;;24.90;45.10;;;;;;5064786;28;20529;-76
2021/07/31 11:15:23;;;;;;;0.10;0.10;;;24.90;45.20;;;;;;5064413;28;20029;-76
2021/07/31 11:18:00;;;;;;;0.08;0.00;;;25.10;44.80;;;;;;5063927;28;20027;-74
2021/07/31 11:20:37;;;;;;;0.03;0.03;;;25.20;44.40;;;;;;5061306;28;20033;-82
2021/07/31 11:23:12;;;;;;;0.10;0.10;;;25.00;44.40;;;;;;5067602;28;20086;-88
2021/07/31 11:25:41;;;;;;;0.00;0.00;;;25.10;44.80;;;;;;5064401;28;20265;-89
2021/07/31 11:28:10;;;;;;;0.00;0.00;;;25.30;44.80;;;;;;5058884;28;20060;-87
2021/07/31 11:30:38;;;;;;;0.08;0.08;;;25.10;45.50;;;;;;5072295;28;20506;-86
2021/07/31 11:33:19;;;;;;;0.00;0.00;;;25.00;45.20;;;;;;5070787;28;20084;-86
2021/07/31 11:35:45;;;;;;;0.10;0.10;;;24.80;45.20;;;;;;5072120;28;20031;-85
2021/07/31 11:38:37;;;;;;;0.00;0.00;;;24.80;45.10;;;;;;5073714;28;20028;-85
2021/07/31 11:41:09;;;;;;;0.10;0.10;;;24.60;47.40;;;;;;5071690;28;20029;-85
2021/07/31 11:43:46;;;;;;;0.03;0.03;;;24.70;46.10;;;;;;5072102;28;20042;-86
2021/07/31 11:46:33;;;;;;;0.08;0.00;;;24.60;47.30;;;;;;5073942;28;20027;-86
2021/07/31 11:49:05;;;;;;;0.10;0.10;;;24.50;47.30;;;;;;5070252;28;20096;-86
2021/07/31 11:51:30;;;;;;;0.10;0.10;;;24.60;48.60;;;;;;5076336;28;20028;-85
2021/07/31 11:54:04;;;;;;;0.10;0.10;;;24.60;46.60;;;;;;5071966;28;20557;-86
2021/07/31 11:56:31;;;;;;;0.10;0.10;;;24.70;45.60;;;;;;5077075;28;20032;-85
2021/07/31 11:58:57;;;;;;;0.00;0.00;;;24.60;45.90;;;;;;5071871;28;20078;-90
2021/07/31 12:01:22;;;;;;;0.10;0.10;;;24.50;46.90;;;;;;5077581;28;20070;-88
2021/07/31 12:03:53;;;;;;;0.08;0.08;;;24.50;45.80;;;;;;5077007;28;20021;-81
2021/07/31 12:06:32;;;;;;;0.10;0.10;;;24.80;47.00;;;;;;5077290;28;20024;-84
2021/07/31 12:09:03;;;;;;;0.00;0.00;;;24.90;45.90;;;;;;5074596;28;20031;-89
2021/07/31 12:11:40;;;;;;;0.10;0.10;;;25.20;45.90;;;;;;5060179;28;20037;-88
2021/07/31 12:14:28;;;;;;;0.10;0.10;;;25.30;44.70;;;;;;5079649;28;20024;-84
2021/07/31 12:17:09;;;;;;;0.00;0.00;;;25.20;45.80;;;;;;5058904;28;20037;-87
2021/07/31 12:19:44;;;;;;;0.10;0.10;;;25.20;44.60;;;;;;5061598;28;20033;-88
2021/07/31 12:22:12;;;;;;;0.10;0.10;;;25.40;45.20;;;;;;5067125;28;20037;-87
2021/07/31 12:24:37;;;;;;;0.00;0.00;;;25.50;43.70;;;;;;5064119;28;20020;-90
2021/07/31 12:27:04;;;;;;;0.00;0.00;;;25.50;44.00;;;;;;5063164;28;20040;-86
2021/07/31 12:29:34;;;;;;;0.00;0.00;;;25.50;43.00;;;;;;5060730;28;20099;-90
2021/07/31 12:32:24;;;;;;;0.00;0.00;;;25.60;44.30;;;;;;5063662;28;20041;-86
2021/07/31 12:34:51;;;;;;;0.15;0.10;;;25.50;45.70;;;;;;5062559;28;20025;-81
2021/07/31 12:37:17;;;;;;;0.10;0.10;;;25.70;45.70;;;;;;5064125;28;20033;-81
2021/07/31 12:39:43;;;;;;;0.28;0.10;;;25.50;45.60;;;;;;5062003;28;20517;-80
2021/07/31 12:42:09;;;;;;;0.10;0.10;;;25.50;45.10;;;;;;5058559;28;20166;-80
2021/07/31 12:44:36;;;;;;;0.05;0.05;;;25.40;44.70;;;;;;5070919;28;20035;-81
2021/07/31 12:47:02;;;;;;;0.03;0.03;;;25.30;44.90;;;;;;5061147;28;20115;-89
2021/07/31 12:49:28;;;;;;;0.10;0.10;;;25.20;44.70;;;;;;5063800;28;20017;-85